The Pas Airport
CYQD : rendu visible

Aérodrome :











RETROUVEZ-NOUS SUR...

 
LOGIN :

S'inscrire | Disclaimer

   EN    FR    IT 

 









Légende :    VFR   VFR Marginal   IFR   IFR Intensif   IFR Très Intensif
Visi : 
Plafond : 
>= 8 km
>= 3000ft
5 à 8 km
1000 à 3000 ft
1500m à 5 km
500 à 1000 ft
800 à 1500m
200 à 500 ft
< 800m
< 200 ft
Symboles :   Orages  Brouillard  Fortes neiges  Fortes précipitations  Vent > 20 kt






- Altitude de l'aérodrome : 887 ft
- Code IATA : YQD


CYQD - The Pas

DERNIER METAR :
  • 181628Z AUTO 36008G15KT 5SM -SN OVC043 M19/M23 A3025 RMK SLP276

METARs EXPIRÉS :
  • 181618Z AUTO 36009G15KT 6SM -SN OVC043 M19/M23 A3024 RMK SLP274
  • 181600Z AUTO 36007KT 3SM -SN OVC045 M19/M23 A3024 RMK SLP272
  • 181522Z AUTO 35007KT 3SM -SN OVC037 M20/M23 A3023 RMK SLP269
  • 181510Z AUTO 35007KT 2 1/4SM -SN OVC035 M20/M23 A3023 RMK SLP269
  • 181401Z AUTO 35009KT 1 1/4SM -SN OVC025 M20/M23 A3021 RMK SLP262

TAF TAF CYQD
Valide du 18 à 13h jusqu'au 19 à 01h UTC


181238Z 1813/1901 36007KT 1SM -SN VV020
TEMPO 1813/1821 4SM -SN OVC030
FM182100 35008KT 2SM -SN BKN020
TEMPO 1821/1901 6SM -SN BKN040 RMK FCST BASED ON AUTO OBS. NXT FCST BY 181900Z



MET'MAP, la Météo Aéronautique d'un coup d'oeil ! - Copyright ORBIFLY Décembre 2007 - Disclaimer

ORBIFLY MET'MAP TEAM :

Programmation & Développement : Alexandra Zaïnal
Sur une idée originale de : Baudouin d'Aumeries
Assistance à la programmation : Marc-Olivier Méhu
Soutien technique & logistique : Manuel Goepfert

Contact : metmap@orbifly.com




SOURCES & CREDITS :

   NOAA       Earth
Advisory